sensor_id;sensor_type;location;lat;lon;timestamp;P1;durP1;ratioP1;P2;durP2;ratioP2
75417;SDS011;63997;52.112;5.420;2023-05-10T00:00:39;14.93;;;8.60;;
75417;SDS011;63997;52.112;5.420;2023-05-10T00:03:05;16.85;;;10.82;;
75417;SDS011;63997;52.112;5.420;2023-05-10T00:05:32;20.40;;;10.30;;
75417;SDS011;63997;52.112;5.420;2023-05-10T00:07:58;18.23;;;9.52;;
75417;SDS011;63997;52.112;5.420;2023-05-10T00:10:25;17.00;;;9.10;;
75417;SDS011;63997;52.112;5.420;2023-05-10T00:12:52;17.85;;;10.93;;
75417;SDS011;63997;52.112;5.420;2023-05-10T00:15:18;17.80;;;9.48;;
75417;SDS011;63997;52.112;5.420;2023-05-10T00:17:44;24.00;;;12.45;;
75417;SDS011;63997;52.112;5.420;2023-05-10T00:20:11;21.90;;;11.20;;
75417;SDS011;63997;52.112;5.420;2023-05-10T00:22:37;23.90;;;11.27;;
75417;SDS011;63997;52.112;5.420;2023-05-10T00:25:04;49.15;;;11.48;;
75417;SDS011;63997;52.112;5.420;2023-05-10T00:27:31;32.03;;;11.88;;
75417;SDS011;63997;52.112;5.420;2023-05-10T00:29:59;33.60;;;12.20;;
75417;SDS011;63997;52.112;5.420;2023-05-10T00:32:25;25.60;;;12.82;;
75417;SDS011;63997;52.112;5.420;2023-05-10T00:34:51;22.43;;;10.27;;
75417;SDS011;63997;52.112;5.420;2023-05-10T00:37:18;21.77;;;12.68;;
75417;SDS011;63997;52.112;5.420;2023-05-10T00:39:44;28.95;;;14.48;;
75417;SDS011;63997;52.112;5.420;2023-05-10T00:42:11;29.38;;;13.80;;
75417;SDS011;63997;52.112;5.420;2023-05-10T00:44:37;31.73;;;14.60;;
75417;SDS011;63997;52.112;5.420;2023-05-10T00:47:04;30.80;;;15.30;;
75417;SDS011;63997;52.112;5.420;2023-05-10T00:49:30;35.17;;;15.70;;
75417;SDS011;63997;52.112;5.420;2023-05-10T00:51:57;40.15;;;17.58;;
75417;SDS011;63997;52.112;5.420;2023-05-10T00:54:23;35.65;;;16.85;;
75417;SDS011;63997;52.112;5.420;2023-05-10T00:56:50;38.25;;;18.25;;
75417;SDS011;63997;52.112;5.420;2023-05-10T00:59:17;40.53;;;17.70;;
75417;SDS011;63997;52.112;5.420;2023-05-10T01:01:45;42.70;;;19.23;;
75417;SDS011;63997;52.112;5.420;2023-05-10T01:04:12;45.67;;;19.80;;
75417;SDS011;63997;52.112;5.420;2023-05-10T01:06:43;44.67;;;19.15;;
75417;SDS011;63997;52.112;5.420;2023-05-10T01:09:10;43.40;;;18.60;;
75417;SDS011;63997;52.112;5.420;2023-05-10T01:11:38;49.77;;;20.37;;
75417;SDS011;63997;52.112;5.420;2023-05-10T01:14:06;40.35;;;18.38;;
75417;SDS011;63997;52.112;5.420;2023-05-10T01:16:33;45.72;;;19.23;;
75417;SDS011;63997;52.112;5.420;2023-05-10T01:19:09;40.20;;;18.20;;
75417;SDS011;63997;52.112;5.420;2023-05-10T01:21:43;43.97;;;18.50;;
75417;SDS011;63997;52.112;5.420;2023-05-10T01:24:24;43.80;;;18.13;;
75417;SDS011;63997;52.112;5.420;2023-05-10T01:30:23;45.08;;;18.98;;
75417;SDS011;63997;52.112;5.420;2023-05-10T01:43:22;42.60;;;18.67;;
75417;SDS011;63997;52.112;5.420;2023-05-10T01:45:59;41.85;;;18.63;;
75417;SDS011;63997;52.112;5.420;2023-05-10T01:48:30;45.33;;;17.80;;
75417;SDS011;63997;52.112;5.420;2023-05-10T01:50:58;41.40;;;18.40;;
75417;SDS011;63997;52.112;5.420;2023-05-10T01:53:25;42.35;;;19.27;;
75417;SDS011;63997;52.112;5.420;2023-05-10T01:55:53;48.30;;;20.35;;
75417;SDS011;63997;52.112;5.420;2023-05-10T01:58:23;40.70;;;18.40;;
75417;SDS011;63997;52.112;5.420;2023-05-10T02:00:53;41.83;;;18.83;;
75417;SDS011;63997;52.112;5.420;2023-05-10T02:03:21;41.67;;;18.53;;
75417;SDS011;63997;52.112;5.420;2023-05-10T02:05:50;38.63;;;17.33;;
75417;SDS011;63997;52.112;5.420;2023-05-10T02:08:19;42.17;;;18.73;;
75417;SDS011;63997;52.112;5.420;2023-05-10T02:10:48;49.75;;;20.30;;
75417;SDS011;63997;52.112;5.420;2023-05-10T02:13:18;42.78;;;20.45;;
75417;SDS011;63997;52.112;5.420;2023-05-10T02:15:48;45.70;;;18.67;;
75417;SDS011;63997;52.112;5.420;2023-05-10T02:18:16;43.72;;;18.67;;
75417;SDS011;63997;52.112;5.420;2023-05-10T02:20:45;46.42;;;19.65;;
75417;SDS011;63997;52.112;5.420;2023-05-10T02:23:13;44.65;;;19.17;;
75417;SDS011;63997;52.112;5.420;2023-05-10T02:25:41;42.88;;;19.38;;
75417;SDS011;63997;52.112;5.420;2023-05-10T02:28:09;42.00;;;18.83;;
75417;SDS011;63997;52.112;5.420;2023-05-10T02:30:38;43.40;;;18.50;;
75417;SDS011;63997;52.112;5.420;2023-05-10T02:33:05;48.45;;;19.55;;
75417;SDS011;63997;52.112;5.420;2023-05-10T02:35:32;49.58;;;19.67;;
75417;SDS011;63997;52.112;5.420;2023-05-10T02:38:00;43.97;;;20.95;;
75417;SDS011;63997;52.112;5.420;2023-05-10T02:40:27;49.17;;;19.80;;
75417;SDS011;63997;52.112;5.420;2023-05-10T02:42:54;46.40;;;20.02;;
75417;SDS011;63997;52.112;5.420;2023-05-10T02:45:24;49.38;;;20.55;;
75417;SDS011;63997;52.112;5.420;2023-05-10T02:47:55;49.80;;;20.83;;
75417;SDS011;63997;52.112;5.420;2023-05-10T02:50:22;54.50;;;21.70;;
75417;SDS011;63997;52.112;5.420;2023-05-10T02:52:54;50.83;;;20.40;;
75417;SDS011;63997;52.112;5.420;2023-05-10T02:55:26;51.40;;;21.95;;
75417;SDS011;63997;52.112;5.420;2023-05-10T02:57:59;57.25;;;22.33;;
75417;SDS011;63997;52.112;5.420;2023-05-10T03:00:26;51.60;;;22.10;;
75417;SDS011;63997;52.112;5.420;2023-05-10T03:02:53;56.20;;;22.70;;
75417;SDS011;63997;52.112;5.420;2023-05-10T03:05:20;51.00;;;21.60;;
75417;SDS011;63997;52.112;5.420;2023-05-10T03:07:46;58.03;;;22.25;;
75417;SDS011;63997;52.112;5.420;2023-05-10T03:10:14;64.80;;;23.52;;
75417;SDS011;63997;52.112;5.420;2023-05-10T03:12:47;61.33;;;22.10;;
75417;SDS011;63997;52.112;5.420;2023-05-10T03:15:22;61.33;;;22.60;;
75417;SDS011;63997;52.112;5.420;2023-05-10T03:18:07;69.23;;;22.40;;
75417;SDS011;63997;52.112;5.420;2023-05-10T03:20:44;64.47;;;20.60;;
75417;SDS011;63997;52.112;5.420;2023-05-10T03:23:17;62.97;;;21.80;;
75417;SDS011;63997;52.112;5.420;2023-05-10T03:25:48;72.93;;;21.38;;
75417;SDS011;63997;52.112;5.420;2023-05-10T03:28:15;70.22;;;22.83;;
75417;SDS011;63997;52.112;5.420;2023-05-10T03:30:42;63.93;;;21.90;;
75417;SDS011;63997;52.112;5.420;2023-05-10T03:33:09;64.88;;;20.98;;
75417;SDS011;63997;52.112;5.420;2023-05-10T03:35:37;68.53;;;23.20;;
75417;SDS011;63997;52.112;5.420;2023-05-10T03:38:03;59.72;;;21.05;;
75417;SDS011;63997;52.112;5.420;2023-05-10T03:40:31;70.63;;;23.27;;
75417;SDS011;63997;52.112;5.420;2023-05-10T03:42:58;58.43;;;21.63;;
75417;SDS011;63997;52.112;5.420;2023-05-10T03:45:25;61.65;;;22.15;;
75417;SDS011;63997;52.112;5.420;2023-05-10T03:47:52;66.50;;;22.88;;
75417;SDS011;63997;52.112;5.420;2023-05-10T03:50:18;64.38;;;23.02;;
75417;SDS011;63997;52.112;5.420;2023-05-10T03:52:45;68.55;;;25.13;;
75417;SDS011;63997;52.112;5.420;2023-05-10T03:55:12;70.20;;;23.37;;
75417;SDS011;63997;52.112;5.420;2023-05-10T03:57:38;65.53;;;22.65;;
75417;SDS011;63997;52.112;5.420;2023-05-10T04:00:05;61.58;;;22.48;;
75417;SDS011;63997;52.112;5.420;2023-05-10T04:02:32;60.08;;;20.63;;
75417;SDS011;63997;52.112;5.420;2023-05-10T04:04:58;57.22;;;20.40;;
75417;SDS011;63997;52.112;5.420;2023-05-10T04:07:24;54.03;;;20.43;;
75417;SDS011;63997;52.112;5.420;2023-05-10T04:09:51;61.25;;;22.25;;
75417;SDS011;63997;52.112;5.420;2023-05-10T04:12:17;60.25;;;20.25;;
75417;SDS011;63997;52.112;5.420;2023-05-10T04:14:43;62.25;;;21.20;;
75417;SDS011;63997;52.112;5.420;2023-05-10T04:17:10;53.15;;;20.05;;
75417;SDS011;63997;52.112;5.420;2023-05-10T04:19:37;55.93;;;19.90;;
75417;SDS011;63997;52.112;5.420;2023-05-10T04:22:03;56.90;;;19.88;;
75417;SDS011;63997;52.112;5.420;2023-05-10T04:24:29;64.38;;;22.08;;
75417;SDS011;63997;52.112;5.420;2023-05-10T04:26:56;56.67;;;20.70;;
75417;SDS011;63997;52.112;5.420;2023-05-10T04:29:23;53.20;;;20.75;;
75417;SDS011;63997;52.112;5.420;2023-05-10T04:31:49;56.63;;;21.17;;
75417;SDS011;63997;52.112;5.420;2023-05-10T04:34:17;55.45;;;19.88;;
75417;SDS011;63997;52.112;5.420;2023-05-10T04:36:43;59.88;;;20.63;;
75417;SDS011;63997;52.112;5.420;2023-05-10T04:39:09;60.38;;;19.52;;
75417;SDS011;63997;52.112;5.420;2023-05-10T04:41:37;55.45;;;22.33;;
75417;SDS011;63997;52.112;5.420;2023-05-10T04:44:04;62.03;;;21.10;;
75417;SDS011;63997;52.112;5.420;2023-05-10T04:46:30;53.35;;;19.33;;
75417;SDS011;63997;52.112;5.420;2023-05-10T04:48:57;55.50;;;20.20;;
75417;SDS011;63997;52.112;5.420;2023-05-10T04:51:23;57.88;;;19.58;;
75417;SDS011;63997;52.112;5.420;2023-05-10T04:53:49;57.72;;;20.60;;
75417;SDS011;63997;52.112;5.420;2023-05-10T04:56:30;59.40;;;19.80;;
75417;SDS011;63997;52.112;5.420;2023-05-10T04:58:57;57.25;;;21.17;;
75417;SDS011;63997;52.112;5.420;2023-05-10T05:01:23;56.25;;;18.88;;
75417;SDS011;63997;52.112;5.420;2023-05-10T05:03:50;56.20;;;20.60;;
75417;SDS011;63997;52.112;5.420;2023-05-10T05:06:18;59.33;;;20.02;;
75417;SDS011;63997;52.112;5.420;2023-05-10T05:08:45;59.93;;;20.60;;
75417;SDS011;63997;52.112;5.420;2023-05-10T05:11:11;63.13;;;20.63;;
75417;SDS011;63997;52.112;5.420;2023-05-10T05:13:37;60.47;;;20.50;;
75417;SDS011;63997;52.112;5.420;2023-05-10T05:16:05;56.55;;;19.70;;
75417;SDS011;63997;52.112;5.420;2023-05-10T05:18:31;63.03;;;20.45;;
75417;SDS011;63997;52.112;5.420;2023-05-10T05:20:58;56.23;;;20.87;;
75417;SDS011;63997;52.112;5.420;2023-05-10T05:23:24;55.83;;;20.63;;
75417;SDS011;63997;52.112;5.420;2023-05-10T05:25:51;61.90;;;19.35;;
75417;SDS011;63997;52.112;5.420;2023-05-10T05:28:21;63.50;;;22.08;;
75417;SDS011;63997;52.112;5.420;2023-05-10T05:30:49;61.15;;;21.88;;
75417;SDS011;63997;52.112;5.420;2023-05-10T05:33:15;59.73;;;20.40;;
75417;SDS011;63997;52.112;5.420;2023-05-10T05:35:42;58.00;;;21.00;;
75417;SDS011;63997;52.112;5.420;2023-05-10T05:38:13;62.72;;;22.55;;
75417;SDS011;63997;52.112;5.420;2023-05-10T05:40:40;62.70;;;21.15;;
75417;SDS011;63997;52.112;5.420;2023-05-10T05:43:06;63.83;;;21.55;;
75417;SDS011;63997;52.112;5.420;2023-05-10T05:45:32;59.07;;;21.57;;
75417;SDS011;63997;52.112;5.420;2023-05-10T05:47:59;55.65;;;20.90;;
75417;SDS011;63997;52.112;5.420;2023-05-10T05:50:25;62.75;;;21.17;;
75417;SDS011;63997;52.112;5.420;2023-05-10T05:52:52;55.53;;;21.48;;
75417;SDS011;63997;52.112;5.420;2023-05-10T05:55:18;48.78;;;19.77;;
75417;SDS011;63997;52.112;5.420;2023-05-10T05:57:45;53.13;;;20.27;;
75417;SDS011;63997;52.112;5.420;2023-05-10T06:00:12;52.97;;;21.63;;
75417;SDS011;63997;52.112;5.420;2023-05-10T06:02:42;50.40;;;19.42;;
75417;SDS011;63997;52.112;5.420;2023-05-10T06:05:09;55.35;;;21.50;;
75417;SDS011;63997;52.112;5.420;2023-05-10T06:07:35;51.08;;;18.92;;
75417;SDS011;63997;52.112;5.420;2023-05-10T06:10:02;50.97;;;18.77;;
75417;SDS011;63997;52.112;5.420;2023-05-10T06:12:29;46.30;;;18.42;;
75417;SDS011;63997;52.112;5.420;2023-05-10T06:14:55;44.80;;;18.63;;
75417;SDS011;63997;52.112;5.420;2023-05-10T06:17:22;44.20;;;17.70;;
75417;SDS011;63997;52.112;5.420;2023-05-10T06:19:48;43.25;;;17.90;;
75417;SDS011;63997;52.112;5.420;2023-05-10T06:22:14;43.43;;;18.20;;
75417;SDS011;63997;52.112;5.420;2023-05-10T06:24:42;47.28;;;19.80;;
75417;SDS011;63997;52.112;5.420;2023-05-10T06:27:09;45.90;;;18.83;;
75417;SDS011;63997;52.112;5.420;2023-05-10T06:29:37;47.60;;;17.83;;
75417;SDS011;63997;52.112;5.420;2023-05-10T06:32:03;42.72;;;18.13;;
75417;SDS011;63997;52.112;5.420;2023-05-10T06:34:30;45.00;;;18.23;;
75417;SDS011;63997;52.112;5.420;2023-05-10T06:36:57;36.03;;;16.60;;
75417;SDS011;63997;52.112;5.420;2023-05-10T06:39:24;42.25;;;18.15;;
75417;SDS011;63997;52.112;5.420;2023-05-10T06:41:50;47.05;;;17.92;;
75417;SDS011;63997;52.112;5.420;2023-05-10T06:44:16;44.67;;;17.40;;
75417;SDS011;63997;52.112;5.420;2023-05-10T06:46:43;44.00;;;18.63;;
75417;SDS011;63997;52.112;5.420;2023-05-10T06:49:09;38.47;;;15.88;;
75417;SDS011;63997;52.112;5.420;2023-05-10T06:51:36;38.70;;;15.90;;
75417;SDS011;63997;52.112;5.420;2023-05-10T06:54:03;33.35;;;14.93;;
75417;SDS011;63997;52.112;5.420;2023-05-10T06:56:29;35.75;;;14.48;;
75417;SDS011;63997;52.112;5.420;2023-05-10T06:58:56;38.63;;;15.00;;
75417;SDS011;63997;52.112;5.420;2023-05-10T07:01:22;33.80;;;14.13;;
75417;SDS011;63997;52.112;5.420;2023-05-10T07:03:49;30.55;;;12.60;;
75417;SDS011;63997;52.112;5.420;2023-05-10T07:06:15;34.15;;;12.32;;
75417;SDS011;63997;52.112;5.420;2023-05-10T07:08:58;31.23;;;12.88;;
75417;SDS011;63997;52.112;5.420;2023-05-10T07:11:24;26.83;;;11.40;;
75417;SDS011;63997;52.112;5.420;2023-05-10T07:13:51;23.73;;;10.85;;
75417;SDS011;63997;52.112;5.420;2023-05-10T07:16:17;19.33;;;8.80;;
75417;SDS011;63997;52.112;5.420;2023-05-10T07:18:44;15.32;;;8.70;;
75417;SDS011;63997;52.112;5.420;2023-05-10T07:21:10;17.88;;;7.75;;
75417;SDS011;63997;52.112;5.420;2023-05-10T07:23:36;17.50;;;7.80;;
75417;SDS011;63997;52.112;5.420;2023-05-10T07:26:03;16.50;;;8.05;;
75417;SDS011;63997;52.112;5.420;2023-05-10T07:28:30;10.25;;;6.57;;
75417;SDS011;63997;52.112;5.420;2023-05-10T07:30:56;8.88;;;6.13;;
75417;SDS011;63997;52.112;5.420;2023-05-10T07:33:23;17.85;;;6.72;;
75417;SDS011;63997;52.112;5.420;2023-05-10T07:35:49;12.07;;;6.00;;
75417;SDS011;63997;52.112;5.420;2023-05-10T07:38:16;13.77;;;6.80;;
75417;SDS011;63997;52.112;5.420;2023-05-10T07:40:43;13.93;;;6.93;;
75417;SDS011;63997;52.112;5.420;2023-05-10T07:43:09;13.90;;;6.65;;
75417;SDS011;63997;52.112;5.420;2023-05-10T07:45:36;12.32;;;7.30;;
75417;SDS011;63997;52.112;5.420;2023-05-10T07:48:03;15.77;;;7.33;;
75417;SDS011;63997;52.112;5.420;2023-05-10T07:50:29;14.90;;;7.55;;
75417;SDS011;63997;52.112;5.420;2023-05-10T07:52:55;13.00;;;6.57;;
75417;SDS011;63997;52.112;5.420;2023-05-10T07:55:22;14.98;;;6.85;;
75417;SDS011;63997;52.112;5.420;2023-05-10T07:57:49;11.57;;;5.97;;
75417;SDS011;63997;52.112;5.420;2023-05-10T08:00:19;11.07;;;6.13;;
75417;SDS011;63997;52.112;5.420;2023-05-10T08:02:46;12.55;;;6.20;;
75417;SDS011;63997;52.112;5.420;2023-05-10T08:05:13;14.20;;;6.22;;
75417;SDS011;63997;52.112;5.420;2023-05-10T08:07:41;16.85;;;6.40;;
75417;SDS011;63997;52.112;5.420;2023-05-10T08:10:08;13.05;;;6.60;;
75417;SDS011;63997;52.112;5.420;2023-05-10T08:12:37;9.80;;;5.30;;
75417;SDS011;63997;52.112;5.420;2023-05-10T08:15:04;11.88;;;6.13;;
75417;SDS011;63997;52.112;5.420;2023-05-10T08:17:31;15.43;;;6.30;;
75417;SDS011;63997;52.112;5.420;2023-05-10T08:19:57;11.95;;;6.97;;
75417;SDS011;63997;52.112;5.420;2023-05-10T08:22:24;11.82;;;6.78;;
75417;SDS011;63997;52.112;5.420;2023-05-10T08:24:50;12.97;;;6.80;;
75417;SDS011;63997;52.112;5.420;2023-05-10T08:27:17;11.70;;;6.10;;
75417;SDS011;63997;52.112;5.420;2023-05-10T08:29:43;9.68;;;6.20;;
75417;SDS011;63997;52.112;5.420;2023-05-10T08:32:15;12.00;;;7.13;;
75417;SDS011;63997;52.112;5.420;2023-05-10T08:34:41;13.35;;;6.90;;
75417;SDS011;63997;52.112;5.420;2023-05-10T08:37:08;13.00;;;6.87;;
75417;SDS011;63997;52.112;5.420;2023-05-10T08:39:35;13.98;;;7.57;;
75417;SDS011;63997;52.112;5.420;2023-05-10T08:42:02;15.52;;;7.32;;
75417;SDS011;63997;52.112;5.420;2023-05-10T08:44:31;12.40;;;7.03;;
75417;SDS011;63997;52.112;5.420;2023-05-10T08:47:02;16.38;;;7.78;;
75417;SDS011;63997;52.112;5.420;2023-05-10T08:49:33;15.03;;;7.97;;
75417;SDS011;63997;52.112;5.420;2023-05-10T08:52:02;12.50;;;7.55;;
75417;SDS011;63997;52.112;5.420;2023-05-10T08:54:31;15.32;;;8.88;;
75417;SDS011;63997;52.112;5.420;2023-05-10T08:56:59;12.50;;;8.07;;
75417;SDS011;63997;52.112;5.420;2023-05-10T08:59:26;13.15;;;7.93;;
75417;SDS011;63997;52.112;5.420;2023-05-10T09:01:53;16.40;;;8.23;;
75417;SDS011;63997;52.112;5.420;2023-05-10T09:04:21;15.75;;;8.40;;
75417;SDS011;63997;52.112;5.420;2023-05-10T09:06:49;14.13;;;8.52;;
75417;SDS011;63997;52.112;5.420;2023-05-10T09:09:16;14.32;;;7.88;;
75417;SDS011;63997;52.112;5.420;2023-05-10T09:11:44;11.88;;;7.32;;
75417;SDS011;63997;52.112;5.420;2023-05-10T09:14:11;11.70;;;6.97;;
75417;SDS011;63997;52.112;5.420;2023-05-10T09:16:40;13.50;;;7.00;;
75417;SDS011;63997;52.112;5.420;2023-05-10T09:19:07;11.88;;;6.85;;
75417;SDS011;63997;52.112;5.420;2023-05-10T09:21:35;12.77;;;6.50;;
75417;SDS011;63997;52.112;5.420;2023-05-10T09:24:05;10.05;;;6.70;;
75417;SDS011;63997;52.112;5.420;2023-05-10T09:26:33;10.87;;;6.47;;
75417;SDS011;63997;52.112;5.420;2023-05-10T09:29:03;6.90;;;4.80;;
75417;SDS011;63997;52.112;5.420;2023-05-10T09:34:22;9.25;;;5.07;;
75417;SDS011;63997;52.112;5.420;2023-05-10T09:36:56;7.13;;;4.53;;
75417;SDS011;63997;52.112;5.420;2023-05-10T09:39:33;6.47;;;4.80;;
75417;SDS011;63997;52.112;5.420;2023-05-10T09:42:01;9.20;;;4.85;;
75417;SDS011;63997;52.112;5.420;2023-05-10T09:44:32;8.90;;;4.63;;
75417;SDS011;63997;52.112;5.420;2023-05-10T09:47:00;7.68;;;3.60;;
75417;SDS011;63997;52.112;5.420;2023-05-10T09:49:28;5.50;;;3.72;;
75417;SDS011;63997;52.112;5.420;2023-05-10T09:52:04;5.40;;;4.00;;
75417;SDS011;63997;52.112;5.420;2023-05-10T09:54:32;6.63;;;4.10;;
75417;SDS011;63997;52.112;5.420;2023-05-10T09:57:01;5.45;;;3.33;;
75417;SDS011;63997;52.112;5.420;2023-05-10T09:59:28;6.78;;;3.40;;
75417;SDS011;63997;52.112;5.420;2023-05-10T10:01:55;3.55;;;2.80;;
75417;SDS011;63997;52.112;5.420;2023-05-10T10:04:23;5.90;;;4.10;;
75417;SDS011;63997;52.112;5.420;2023-05-10T10:06:59;4.68;;;2.95;;
75417;SDS011;63997;52.112;5.420;2023-05-10T10:09:28;3.85;;;3.30;;
75417;SDS011;63997;52.112;5.420;2023-05-10T10:11:55;8.07;;;3.40;;
75417;SDS011;63997;52.112;5.420;2023-05-10T10:14:23;5.82;;;3.40;;
75417;SDS011;63997;52.112;5.420;2023-05-10T10:16:52;8.40;;;3.20;;
75417;SDS011;63997;52.112;5.420;2023-05-10T10:19:33;4.85;;;3.60;;
75417;SDS011;63997;52.112;5.420;2023-05-10T10:22:01;15.43;;;3.90;;
75417;SDS011;63997;52.112;5.420;2023-05-10T10:24:27;5.82;;;4.15;;
75417;SDS011;63997;52.112;5.420;2023-05-10T10:26:55;6.10;;;3.97;;
75417;SDS011;63997;52.112;5.420;2023-05-10T10:29:33;7.90;;;4.63;;
75417;SDS011;63997;52.112;5.420;2023-05-10T10:35:04;7.78;;;4.75;;
75417;SDS011;63997;52.112;5.420;2023-05-10T10:37:45;8.75;;;5.10;;
75417;SDS011;63997;52.112;5.420;2023-05-10T10:40:25;8.55;;;4.80;;
75417;SDS011;63997;52.112;5.420;2023-05-10T10:42:53;8.00;;;4.80;;
75417;SDS011;63997;52.112;5.420;2023-05-10T10:45:21;5.25;;;4.25;;
75417;SDS011;63997;52.112;5.420;2023-05-10T10:47:48;7.18;;;4.35;;
75417;SDS011;63997;52.112;5.420;2023-05-10T10:50:19;6.55;;;4.05;;
75417;SDS011;63997;52.112;5.420;2023-05-10T10:52:46;8.02;;;4.50;;
75417;SDS011;63997;52.112;5.420;2023-05-10T10:55:18;7.80;;;4.17;;
75417;SDS011;63997;52.112;5.420;2023-05-10T10:57:50;6.85;;;4.53;;
75417;SDS011;63997;52.112;5.420;2023-05-10T11:02:53;7.25;;;4.25;;
75417;SDS011;63997;52.112;5.420;2023-05-10T11:08:18;4.60;;;3.57;;
75417;SDS011;63997;52.112;5.420;2023-05-10T11:10:52;5.82;;;3.50;;
75417;SDS011;63997;52.112;5.420;2023-05-10T11:15:59;7.90;;;4.72;;
75417;SDS011;63997;52.112;5.420;2023-05-10T11:18:36;7.25;;;4.10;;
75417;SDS011;63997;52.112;5.420;2023-05-10T11:21:04;4.73;;;3.33;;
75417;SDS011;63997;52.112;5.420;2023-05-10T11:26:14;5.53;;;3.50;;
75417;SDS011;63997;52.112;5.420;2023-05-10T11:28:44;7.90;;;4.00;;
75417;SDS011;63997;52.112;5.420;2023-05-10T11:31:18;7.82;;;4.30;;
75417;SDS011;63997;52.112;5.420;2023-05-10T11:33:45;5.90;;;3.60;;
75417;SDS011;63997;52.112;5.420;2023-05-10T11:36:17;5.72;;;3.85;;
75417;SDS011;63997;52.112;5.420;2023-05-10T11:38:45;6.60;;;3.33;;
75417;SDS011;63997;52.112;5.420;2023-05-10T11:41:12;6.25;;;4.15;;
75417;SDS011;63997;52.112;5.420;2023-05-10T11:43:39;13.25;;;4.43;;
75417;SDS011;63997;52.112;5.420;2023-05-10T11:46:10;8.53;;;3.70;;
75417;SDS011;63997;52.112;5.420;2023-05-10T11:48:38;6.18;;;3.58;;
75417;SDS011;63997;52.112;5.420;2023-05-10T11:51:09;6.88;;;3.72;;
75417;SDS011;63997;52.112;5.420;2023-05-10T11:53:36;5.80;;;3.03;;
75417;SDS011;63997;52.112;5.420;2023-05-10T11:56:05;5.55;;;2.92;;
75417;SDS011;63997;52.112;5.420;2023-05-10T11:58:35;6.70;;;2.60;;
75417;SDS011;63997;52.112;5.420;2023-05-10T12:01:04;5.50;;;2.80;;
75417;SDS011;63997;52.112;5.420;2023-05-10T12:03:33;3.72;;;3.08;;
75417;SDS011;63997;52.112;5.420;2023-05-10T12:06:00;6.82;;;2.92;;
75417;SDS011;63997;52.112;5.420;2023-05-10T12:08:28;4.55;;;2.88;;
75417;SDS011;63997;52.112;5.420;2023-05-10T12:11:06;4.47;;;2.33;;
75417;SDS011;63997;52.112;5.420;2023-05-10T12:13:40;3.65;;;2.83;;
75417;SDS011;63997;52.112;5.420;2023-05-10T12:16:28;5.05;;;2.70;;
75417;SDS011;63997;52.112;5.420;2023-05-10T12:18:59;3.60;;;2.10;;
75417;SDS011;63997;52.112;5.420;2023-05-10T12:21:27;2.90;;;1.67;;
75417;SDS011;63997;52.112;5.420;2023-05-10T12:24:00;4.47;;;2.10;;
75417;SDS011;63997;52.112;5.420;2023-05-10T12:26:28;4.95;;;2.42;;
75417;SDS011;63997;52.112;5.420;2023-05-10T12:29:11;4.18;;;2.55;;
75417;SDS011;63997;52.112;5.420;2023-05-10T12:34:34;3.58;;;2.05;;
75417;SDS011;63997;52.112;5.420;2023-05-10T12:37:02;4.37;;;2.60;;
75417;SDS011;63997;52.112;5.420;2023-05-10T12:39:39;6.43;;;2.28;;
75417;SDS011;63997;52.112;5.420;2023-05-10T12:42:07;4.55;;;2.10;;
75417;SDS011;63997;52.112;5.420;2023-05-10T12:44:33;3.08;;;2.15;;
75417;SDS011;63997;52.112;5.420;2023-05-10T12:47:00;4.53;;;1.75;;
75417;SDS011;63997;52.112;5.420;2023-05-10T12:49:26;2.63;;;1.73;;
75417;SDS011;63997;52.112;5.420;2023-05-10T12:51:53;3.60;;;1.40;;
75417;SDS011;63997;52.112;5.420;2023-05-10T12:54:19;3.95;;;1.90;;
75417;SDS011;63997;52.112;5.420;2023-05-10T12:56:45;3.33;;;1.55;;
75417;SDS011;63997;52.112;5.420;2023-05-10T12:59:12;3.65;;;1.70;;
75417;SDS011;63997;52.112;5.420;2023-05-10T13:01:38;3.63;;;1.50;;
75417;SDS011;63997;52.112;5.420;2023-05-10T13:04:05;3.28;;;1.30;;
75417;SDS011;63997;52.112;5.420;2023-05-10T13:06:31;4.32;;;1.92;;
75417;SDS011;63997;52.112;5.420;2023-05-10T13:08:58;2.35;;;1.40;;
75417;SDS011;63997;52.112;5.420;2023-05-10T13:11:24;4.65;;;1.55;;
75417;SDS011;63997;52.112;5.420;2023-05-10T13:13:51;3.80;;;2.70;;
75417;SDS011;63997;52.112;5.420;2023-05-10T13:16:17;5.78;;;3.75;;
75417;SDS011;63997;52.112;5.420;2023-05-10T13:18:44;4.43;;;3.30;;
75417;SDS011;63997;52.112;5.420;2023-05-10T13:21:10;3.22;;;2.78;;
75417;SDS011;63997;52.112;5.420;2023-05-10T13:23:37;5.03;;;3.25;;
75417;SDS011;63997;52.112;5.420;2023-05-10T13:26:03;5.47;;;2.90;;
75417;SDS011;63997;52.112;5.420;2023-05-10T13:28:30;3.70;;;2.70;;
75417;SDS011;63997;52.112;5.420;2023-05-10T13:30:56;5.15;;;3.03;;
75417;SDS011;63997;52.112;5.420;2023-05-10T13:33:23;5.57;;;3.20;;
75417;SDS011;63997;52.112;5.420;2023-05-10T13:35:49;5.22;;;3.08;;
75417;SDS011;63997;52.112;5.420;2023-05-10T13:38:15;4.20;;;2.50;;
75417;SDS011;63997;52.112;5.420;2023-05-10T13:40:42;7.15;;;2.92;;
75417;SDS011;63997;52.112;5.420;2023-05-10T13:43:08;6.50;;;2.67;;
75417;SDS011;63997;52.112;5.420;2023-05-10T13:45:35;6.13;;;3.72;;
75417;SDS011;63997;52.112;5.420;2023-05-10T13:48:01;4.45;;;3.03;;
75417;SDS011;63997;52.112;5.420;2023-05-10T13:50:29;6.83;;;3.00;;
75417;SDS011;63997;52.112;5.420;2023-05-10T13:52:56;5.35;;;3.05;;
75417;SDS011;63997;52.112;5.420;2023-05-10T13:55:23;6.15;;;3.63;;
75417;SDS011;63997;52.112;5.420;2023-05-10T13:57:49;7.57;;;3.53;;
75417;SDS011;63997;52.112;5.420;2023-05-10T14:00:15;6.43;;;3.58;;
75417;SDS011;63997;52.112;5.420;2023-05-10T14:02:42;8.80;;;3.40;;
75417;SDS011;63997;52.112;5.420;2023-05-10T14:05:09;5.97;;;3.40;;
75417;SDS011;63997;52.112;5.420;2023-05-10T14:07:35;6.43;;;4.00;;
75417;SDS011;63997;52.112;5.420;2023-05-10T14:10:01;8.98;;;3.35;;
75417;SDS011;63997;52.112;5.420;2023-05-10T14:12:28;10.27;;;4.15;;
75417;SDS011;63997;52.112;5.420;2023-05-10T14:14:56;5.73;;;3.47;;
75417;SDS011;63997;52.112;5.420;2023-05-10T14:17:24;8.50;;;4.20;;
75417;SDS011;63997;52.112;5.420;2023-05-10T14:19:50;7.43;;;4.05;;
75417;SDS011;63997;52.112;5.420;2023-05-10T14:22:16;7.68;;;3.88;;
75417;SDS011;63997;52.112;5.420;2023-05-10T14:24:44;7.45;;;4.28;;
75417;SDS011;63997;52.112;5.420;2023-05-10T14:27:12;6.13;;;3.77;;
75417;SDS011;63997;52.112;5.420;2023-05-10T14:29:39;7.63;;;4.70;;
75417;SDS011;63997;52.112;5.420;2023-05-10T14:32:05;8.40;;;4.50;;
75417;SDS011;63997;52.112;5.420;2023-05-10T14:34:32;7.13;;;3.88;;
75417;SDS011;63997;52.112;5.420;2023-05-10T14:36:59;7.55;;;4.15;;
75417;SDS011;63997;52.112;5.420;2023-05-10T14:39:25;7.27;;;4.27;;
75417;SDS011;63997;52.112;5.420;2023-05-10T14:41:55;8.88;;;4.30;;
75417;SDS011;63997;52.112;5.420;2023-05-10T14:44:22;10.18;;;4.20;;
75417;SDS011;63997;52.112;5.420;2023-05-10T14:46:48;10.68;;;5.25;;
75417;SDS011;63997;52.112;5.420;2023-05-10T14:49:15;8.63;;;4.75;;
75417;SDS011;63997;52.112;5.420;2023-05-10T14:51:42;8.63;;;4.93;;
75417;SDS011;63997;52.112;5.420;2023-05-10T14:54:08;10.25;;;4.80;;
75417;SDS011;63997;52.112;5.420;2023-05-10T14:56:38;8.20;;;4.43;;
75417;SDS011;63997;52.112;5.420;2023-05-10T14:59:04;9.70;;;4.72;;
75417;SDS011;63997;52.112;5.420;2023-05-10T15:01:31;8.98;;;4.70;;
75417;SDS011;63997;52.112;5.420;2023-05-10T15:03:59;9.43;;;4.73;;
75417;SDS011;63997;52.112;5.420;2023-05-10T15:06:33;8.93;;;4.50;;
75417;SDS011;63997;52.112;5.420;2023-05-10T15:09:01;11.30;;;5.22;;
75417;SDS011;63997;52.112;5.420;2023-05-10T15:11:29;11.05;;;4.85;;